Terminal Aerodrome Forecast
Issued by NWS

Home | Current Version | Previous Version | Text Only | Print | Product List | Glossary On
Versions: 1 2 3 4 5 6 7 8 9 10 11 12 13 14 15 16 17 18 19 20 21
000
FTUS43 KAPX 251944 AAA
TAFTVC
TAF AMD
KTVC 251944Z 2520/2618 31009KT P6SM VCSH BKN035 OVC060
     FM252100 31007KT P6SM BKN035
     FM260200 VRB03KT P6SM BKN035
     FM260400 VRB03KT P6SM VCSH OVC025
     FM260900 24005KT P6SM VCSH OVC015
     FM261600 26009G17KT P6SM VCSH OVC015=

USA.gov is the U.S. government's official web portal to all federal, state and local government web resources and services.